9 de Julio, Argentina
Current Conditions -  °F | °C
As of 3:00 PM on Thursday 30 Oct 2014 (Local Time) from SAME Reporting Station
Clear Clear  
Wind Chill: 81°   Ceiling: Unl
Heat Index: 81°   Visibility: 6mi
Dew Point: 34°   Wind: 7mph
Humidity: 18%   Direction: 360°N
Pressure: 29.74"   Gusts: NA
Location:  31.65°S, 68.4°W
Report Text: SAME 301800Z 36006KT CAVOK 27/01 Q1007
Loading
Personal Weather Stations






























Interactive Weather Map New forecast layout! Learn more

10-Day Weather Forecast

Advertisements
Track Severe Weather on mobile